Wichita Mid Continent Airport
KICT : now visible

Airfield :











YOU CAN JOIN US ON...

 
LOGIN :

Register | Disclaimer

   EN    FR    IT 

 









Legend :    VFR   Marginal VFR   IFR   Intensive IFR   Very Intensive IFR
Visi :
Ceiling :
>= 8 km
>= 3000ft
5 to 8 km
1000 to 3000 ft
1500m to 5 km
500 to 1000 ft
800 to 1500m
200 to 500 ft
< 800m
< 200 ft
Symbols :   Thunderstorms  Fog  Heavy snow  Heavy precipitations  Wind > 20 kt







- Airport Elevation : 1333 ft
- IATA code : ICT


KICT - Wichita Mid Continent

CURRENT METAR :
  • 161653Z 18012KT 10SM BKN250 29/20 A3009 RMK AO2 SLP174 T02940200

EXPIRED METARs :
  • 161553Z 20012G20KT 10SM BKN250 30/20 A3010 RMK AO2 SLP178 T03000200 $
  • 161453Z 19007KT 10SM BKN250 27/21 A3010 RMK AO2 SLP178 T02670206 51008 $

TAF KICT
Valid from the 16 at 12:00 until the 17 at 12:00 UTC


161120Z 1612/1712 VRB05KT P6SM BKN250
FM161500 18010KT P6SM BKN250
FM161700 17010G20KT P6SM BKN150
FM170300 16010KT P6SM SCT150 WS015/18025KT
No reported NOTAMs for that airfield.



MET'MAP, your aeronautical weather chart ! - Copyright ORBIFLY December 2007 - Disclaimer

ORBIFLY MET'MAP TEAM :

Programming & Development : Alexandra Zaïnal
Concept & Development : Baudouin d'Aumeries
Co-Development & Prog : Marc-Olivier Méhu
Technical & hardware support : Manuel Goepfert

Contact : metmap@orbifly.com




SOURCES & CREDITS :

   NOAA       Earth
Advisory